Lac La Biche, Alberta

Conditions des dernières 24 heures

Ce tableau est un sommaire des conditions météo couvrant les dernières 24 heures. Ce sommaire inclut les paramètres suivants: température, humidité, point de rosée, direction et vitesse du vent, pression barométrique, facteur de refroidissement éolien ou indice humidex.
Date / Heure
(HAR)
Conditions Temp (°C) Humidite (%) Point de rose (°C) Vent (km/h) Pression (kPa) Visibilité (km)
15 septembre 2014
18:00 N.D. 21   35 5 ESE 4 101,4 N.D.
17:00 N.D. 21   35 5 E 6 101,4 N.D.
16:00 N.D. 20 38 5 E 6 101,5 N.D.
15:00 N.D. 21   38 6 NE 10 101,5 N.D.
14:00 N.D. 20 44 7 ENE 8 101,5 N.D.
13:00 N.D. 19 47 7 NE 6 101,5 N.D.
12:00 N.D. 18 47 6 NNO 3 101,6 N.D.
11:00 N.D. 16 53 7 O 3 101,6 N.D.
10:00 N.D. 14 62 7 NO 4 101,6 N.D.
9:00 N.D. 11 82 8 S 2 101,6 N.D.
8:00 N.D. 7 98 6 SSE 2 101,6 N.D.
7:00 N.D. 6   97 5 S 2 101,6 N.D.
6:00 N.D. 7 96 6 calme 101,6 N.D.
5:00 N.D. 6   93 5 SE 2 101,6 N.D.
4:00 N.D. 8 91 7 S 5 101,6 N.D.
3:00 N.D. 10 79 7 O 6 101,6 N.D.
2:00 N.D. 10 79 6 O 5 101,6 N.D.
1:00 N.D. 11 77 7 NO 6 101,6 N.D.
0:00 N.D. 10 81 7 calme 101,6 N.D.
14 septembre 2014
23:00 N.D. 9 87 7 calme 101,6 N.D.
22:00 N.D. 9 79 6 SSO 4 101,7 N.D.
21:00 N.D. 11 79 7 SSO 2 101,7 N.D.
20:00 N.D. 11 74 7 SSO 4 101,7 N.D.
19:00 N.D. 15 52 5 calme 101,7 N.D.
18:00 N.D. 17 42 4 SSO 4 101,7 N.D.
N.D.
non disponible
 ↑ 
température la plus haute
 ↓ 
température la plus basse

Si vous désirez plus de données historiques sur les conditions météo, s.v.p. visitez Données climatologiques en ligne.